createdAt,value
2018-04-24T00:02:24.139Z,9.40
2018-04-24T00:04:52.364Z,9.20
2018-04-24T00:07:20.599Z,9.00
2018-04-24T00:09:49.597Z,9.00
2018-04-24T00:12:18.587Z,8.90
2018-04-24T00:14:47.574Z,8.90
2018-04-24T00:17:16.582Z,9.00
2018-04-24T00:19:44.842Z,8.90
2018-04-24T00:22:13.027Z,9.00
2018-04-24T00:24:41.257Z,9.00
2018-04-24T00:27:09.496Z,9.10
2018-04-24T00:29:37.720Z,9.10
2018-04-24T00:32:05.962Z,9.10
2018-04-24T00:34:34.179Z,9.10
2018-04-24T00:37:03.180Z,9.10
2018-04-24T00:39:32.163Z,9.10
2018-04-24T00:42:01.167Z,9.20
2018-04-24T00:44:29.386Z,9.10
2018-04-24T00:46:57.618Z,9.20
2018-04-24T00:49:25.892Z,9.20
2018-04-24T00:51:54.102Z,9.30
2018-04-24T00:54:22.327Z,9.30
2018-04-24T00:56:51.328Z,9.30
2018-04-24T00:59:19.551Z,9.30
2018-04-24T01:01:47.827Z,9.40
2018-04-24T01:04:15.998Z,9.40
2018-04-24T01:06:44.245Z,9.40
2018-04-24T01:09:12.456Z,9.40
2018-04-24T01:11:40.693Z,9.30
2018-04-24T01:14:08.910Z,9.30
2018-04-24T01:16:37.147Z,9.30
2018-04-24T01:19:05.377Z,9.30
2018-04-24T01:21:34.757Z,9.30
2018-04-24T01:24:02.942Z,9.20
2018-04-24T01:26:31.945Z,9.20
2018-04-24T01:29:00.945Z,9.30
2018-04-24T01:31:29.187Z,9.20
2018-04-24T01:33:57.427Z,9.20
2018-04-24T01:36:25.667Z,9.20
2018-04-24T01:38:53.890Z,9.30
2018-04-24T01:41:22.190Z,9.30
2018-04-24T01:43:50.418Z,9.20
2018-04-24T01:46:18.667Z,9.20
2018-04-24T01:48:46.912Z,9.30
2018-04-24T01:51:15.915Z,9.40
2018-04-24T01:53:44.918Z,9.40
2018-04-24T01:56:13.153Z,9.40
2018-04-24T01:58:41.395Z,9.50
2018-04-24T02:01:09.615Z,9.50
2018-04-24T02:03:38.622Z,9.70
2018-04-24T02:06:07.618Z,9.60
2018-04-24T02:08:35.871Z,9.60
2018-04-24T02:11:04.863Z,9.50
2018-04-24T02:13:33.866Z,9.50
2018-04-24T02:16:02.867Z,9.40
2018-04-24T02:18:31.106Z,9.40
2018-04-24T02:20:59.339Z,9.40
2018-04-24T02:23:27.585Z,9.40
2018-04-24T02:25:55.819Z,9.40
2018-04-24T02:28:24.063Z,9.30
2018-04-24T02:30:52.287Z,9.30
2018-04-24T02:33:21.299Z,9.30
2018-04-24T02:35:50.475Z,9.30
2018-04-24T02:38:18.719Z,9.30
2018-04-24T02:40:46.949Z,9.20
2018-04-24T02:43:15.199Z,9.20
2018-04-24T02:45:44.197Z,9.20
2018-04-24T02:48:13.219Z,9.20
2018-04-24T02:50:41.450Z,9.20
2018-04-24T02:53:09.695Z,9.20
2018-04-24T02:55:37.919Z,9.10
2018-04-24T02:58:06.931Z,9.30
2018-04-24T03:00:35.162Z,9.20
2018-04-24T03:03:03.400Z,9.40
2018-04-24T03:05:31.927Z,9.50
2018-04-24T03:08:00.155Z,9.50
2018-04-24T03:10:28.387Z,9.60
2018-04-24T03:12:56.628Z,9.70
2018-04-24T03:15:24.860Z,9.80
2018-04-24T03:17:53.106Z,9.90
2018-04-24T03:20:21.343Z,9.90
2018-04-24T03:22:49.574Z,10.00
2018-04-24T03:25:17.829Z,10.10
2018-04-24T03:27:46.825Z,10.10
2018-04-24T03:30:15.079Z,10.10
2018-04-24T03:32:44.080Z,10.10
2018-04-24T03:35:13.091Z,10.10
2018-04-24T03:37:41.334Z,10.10
2018-04-24T03:40:10.351Z,10.10
2018-04-24T03:42:38.579Z,10.00
2018-04-24T03:45:06.830Z,10.10
2018-04-24T03:47:35.067Z,10.10
2018-04-24T03:50:03.314Z,10.10
2018-04-24T03:52:31.550Z,10.20
2018-04-24T03:54:59.799Z,10.20
2018-04-24T03:57:28.034Z,10.10
2018-04-24T03:59:56.282Z,10.10
2018-04-24T04:02:24.521Z,10.00
2018-04-24T04:04:52.771Z,10.00
2018-04-24T04:07:21.767Z,10.00
2018-04-24T04:09:50.788Z,9.90
2018-04-24T04:12:19.019Z,9.90
2018-04-24T04:14:47.252Z,9.80
2018-04-24T04:17:27.470Z,9.80
2018-04-24T04:20:07.390Z,9.80
2018-04-24T04:22:47.953Z,9.80
2018-04-24T04:25:16.191Z,9.80
2018-04-24T04:27:44.411Z,9.80
2018-04-24T04:30:14.235Z,9.80
2018-04-24T04:32:43.238Z,9.80
2018-04-24T04:35:11.475Z,9.80
2018-04-24T04:37:39.724Z,9.80
2018-04-24T04:40:08.339Z,9.80
2018-04-24T04:42:36.576Z,9.90
2018-04-24T04:45:05.579Z,9.80
2018-04-24T04:47:33.840Z,9.80
2018-04-24T04:50:02.054Z,9.80
2018-04-24T04:52:31.059Z,9.80
2018-04-24T04:55:00.055Z,9.80
2018-04-24T04:57:28.304Z,9.80
2018-04-24T04:59:56.527Z,9.80
2018-04-24T05:02:24.754Z,9.80
2018-04-24T05:04:52.983Z,9.80
2018-04-24T05:07:21.232Z,9.80
2018-04-24T05:09:49.454Z,9.90
2018-04-24T05:12:17.699Z,9.90
2018-04-24T05:14:45.925Z,10.00
2018-04-24T05:17:14.939Z,10.00
2018-04-24T05:19:43.158Z,10.00
2018-04-24T05:22:11.412Z,10.00
2018-04-24T05:24:39.639Z,10.00
2018-04-24T05:27:08.641Z,10.00
2018-04-24T05:29:37.649Z,10.10
2018-04-24T05:32:05.886Z,10.00
2018-04-24T05:34:34.128Z,10.10
2018-04-24T05:37:02.359Z,10.20
2018-04-24T05:39:31.372Z,10.20
2018-04-24T05:41:59.610Z,10.20
2018-04-24T05:44:27.851Z,10.20
2018-04-24T05:46:56.085Z,10.20
2018-04-24T05:49:24.332Z,10.30
2018-04-24T05:51:53.315Z,10.30
2018-04-24T05:54:21.561Z,10.30
2018-04-24T05:56:49.787Z,10.30
2018-04-24T05:59:18.019Z,10.30
2018-04-24T06:01:46.259Z,10.30
2018-04-24T06:04:14.492Z,10.30
2018-04-24T06:06:43.479Z,10.30
2018-04-24T06:09:12.498Z,10.30
2018-04-24T06:11:40.720Z,10.30
2018-04-24T06:14:08.983Z,10.30
2018-04-24T06:16:37.212Z,10.30
2018-04-24T06:19:06.411Z,10.30
2018-04-24T06:21:34.643Z,10.30
2018-04-24T06:24:02.883Z,10.30
2018-04-24T06:26:31.107Z,10.30
2018-04-24T06:28:59.346Z,10.30
2018-04-24T06:31:27.575Z,10.30
2018-04-24T06:33:55.805Z,10.30
2018-04-24T06:36:24.034Z,10.30
2018-04-24T06:38:52.276Z,10.30
2018-04-24T06:41:20.523Z,10.40
2018-04-24T06:43:48.748Z,10.40
2018-04-24T06:46:16.996Z,10.40
2018-04-24T06:48:45.216Z,10.40
2018-04-24T06:51:13.463Z,10.50
2018-04-24T06:53:41.692Z,10.40
2018-04-24T06:56:09.931Z,10.50
2018-04-24T06:58:38.156Z,10.40
2018-04-24T07:01:06.400Z,10.50
2018-04-24T07:03:34.632Z,10.50
2018-04-24T07:06:03.638Z,10.60
2018-04-24T07:08:31.864Z,10.60
2018-04-24T07:11:00.103Z,10.60
2018-04-24T07:13:28.341Z,10.60
2018-04-24T07:15:57.361Z,10.60
2018-04-24T07:18:25.591Z,10.70
2018-04-24T07:20:54.607Z,10.60
2018-04-24T07:23:22.827Z,10.60
2018-04-24T07:25:51.075Z,10.60
2018-04-24T07:28:19.319Z,10.60
2018-04-24T07:30:47.678Z,10.60
2018-04-24T07:33:16.675Z,10.60
2018-04-24T07:35:45.689Z,10.60
2018-04-24T07:38:13.915Z,10.60
2018-04-24T07:40:42.169Z,10.70
2018-04-24T07:43:10.404Z,10.70
2018-04-24T07:45:38.640Z,10.70
2018-04-24T07:48:06.888Z,10.80
2018-04-24T07:50:35.405Z,10.70
2018-04-24T07:53:03.622Z,10.60
2018-04-24T07:55:31.859Z,10.70
2018-04-24T07:58:00.888Z,10.80
2018-04-24T08:00:29.116Z,10.70
2018-04-24T08:02:57.359Z,10.80
2018-04-24T08:05:25.591Z,10.80
2018-04-24T08:07:53.847Z,10.80
2018-04-24T08:10:22.851Z,10.90
2018-04-24T08:12:51.866Z,10.90
2018-04-24T08:15:20.105Z,10.90
2018-04-24T08:17:49.124Z,10.90
2018-04-24T08:20:17.367Z,10.90
2018-04-24T08:22:45.697Z,11.00
2018-04-24T08:25:13.854Z,11.00
2018-04-24T08:27:42.114Z,10.90
2018-04-24T08:30:10.340Z,11.00
2018-04-24T08:32:38.590Z,10.90
2018-04-24T08:35:06.831Z,10.90
2018-04-24T08:37:35.087Z,10.90
2018-04-24T08:40:04.098Z,11.00
2018-04-24T08:42:33.106Z,10.90
2018-04-24T08:45:01.360Z,10.90
2018-04-24T08:47:30.355Z,10.90
2018-04-24T08:49:58.596Z,10.90
2018-04-24T08:52:26.843Z,10.80
2018-04-24T08:54:55.078Z,10.80
2018-04-24T08:57:23.331Z,10.80
2018-04-24T08:59:52.339Z,10.70
2018-04-24T09:02:21.355Z,10.70
2018-04-24T09:05:00.266Z,10.70
2018-04-24T09:07:28.510Z,10.80
2018-04-24T09:09:57.519Z,10.90
2018-04-24T09:12:26.534Z,10.90
2018-04-24T09:14:54.779Z,10.80
2018-04-24T09:17:23.798Z,10.90
2018-04-24T09:19:52.035Z,10.90
2018-04-24T09:22:21.052Z,10.80
2018-04-24T09:24:49.290Z,10.80
2018-04-24T09:27:17.602Z,10.80
2018-04-24T09:29:51.404Z,10.90
2018-04-24T09:32:19.653Z,10.90
2018-04-24T09:34:49.136Z,10.80
2018-04-24T09:37:18.280Z,10.90
2018-04-24T09:39:46.517Z,10.80
2018-04-24T09:42:14.786Z,10.90
2018-04-24T09:44:43.024Z,10.90
2018-04-24T09:47:11.259Z,10.90
2018-04-24T09:49:40.276Z,10.80
2018-04-24T09:52:08.545Z,10.80
2018-04-24T09:54:37.534Z,11.00
2018-04-24T09:57:05.792Z,11.00
2018-04-24T09:59:34.798Z,11.00
2018-04-24T10:02:03.052Z,11.00
2018-04-24T10:04:32.056Z,11.10
2018-04-24T10:07:00.296Z,11.00
2018-04-24T10:09:28.557Z,11.10
2018-04-24T10:11:56.804Z,11.20
2018-04-24T10:14:25.049Z,11.40
2018-04-24T10:16:54.052Z,11.50
2018-04-24T10:19:22.312Z,11.40
2018-04-24T10:21:51.311Z,11.50
2018-04-24T10:24:19.568Z,11.50
2018-04-24T10:26:48.563Z,11.50
2018-04-24T10:29:17.583Z,11.40
2018-04-24T10:31:45.823Z,11.40
2018-04-24T10:34:14.831Z,11.50
2018-04-24T10:36:43.076Z,11.50
2018-04-24T10:39:11.327Z,11.60
2018-04-24T10:41:39.572Z,11.60
2018-04-24T10:44:07.842Z,11.80
2018-04-24T10:46:36.089Z,12.00
2018-04-24T10:49:05.103Z,12.00
2018-04-24T10:51:33.360Z,12.00
2018-04-24T10:54:02.355Z,12.00
2018-04-24T10:56:30.913Z,11.90
2018-04-24T10:58:59.142Z,12.00
2018-04-24T11:01:27.379Z,11.90
2018-04-24T11:03:56.399Z,11.90
2018-04-24T11:06:24.634Z,11.90
2018-04-24T11:08:53.651Z,11.90
2018-04-24T11:11:21.892Z,11.90
2018-04-24T11:13:50.139Z,12.00
2018-04-24T11:16:18.381Z,12.10
2018-04-24T11:18:46.627Z,12.30
2018-04-24T11:21:15.857Z,12.70
2018-04-24T11:23:44.091Z,12.60
2018-04-24T11:26:13.090Z,12.80
2018-04-24T11:28:42.110Z,12.70
2018-04-24T11:31:10.346Z,12.70
2018-04-24T11:33:39.363Z,12.90
2018-04-24T11:36:07.606Z,12.90
2018-04-24T11:38:35.871Z,13.00
2018-04-24T11:41:04.155Z,13.00
2018-04-24T11:43:32.391Z,12.90
2018-04-24T11:46:00.647Z,12.90
2018-04-24T11:48:28.890Z,12.90
2018-04-24T11:50:57.897Z,12.90
2018-04-24T11:53:26.566Z,12.90
2018-04-24T11:55:55.576Z,12.70
2018-04-24T11:58:23.817Z,12.70
2018-04-24T12:00:52.067Z,12.70
2018-04-24T12:03:20.299Z,12.60
2018-04-24T12:05:48.551Z,12.40
2018-04-24T12:08:17.557Z,12.40
2018-04-24T12:10:45.814Z,12.40
2018-04-24T12:13:15.125Z,12.50
2018-04-24T12:15:44.205Z,12.70
2018-04-24T12:18:12.378Z,12.70
2018-04-24T12:20:41.398Z,13.30
2018-04-24T12:23:09.644Z,13.20
2018-04-24T12:25:38.666Z,13.50
2018-04-24T12:28:06.898Z,13.50
2018-04-24T12:30:35.190Z,13.40
2018-04-24T12:33:03.392Z,13.60
2018-04-24T12:35:31.638Z,13.40
2018-04-24T12:38:00.646Z,13.30
2018-04-24T12:40:28.893Z,13.20
2018-04-24T12:42:57.910Z,13.50
2018-04-24T12:45:26.169Z,13.50
2018-04-24T12:47:55.173Z,13.20
2018-04-24T12:50:24.184Z,13.20
2018-04-24T12:52:52.423Z,13.20
2018-04-24T12:55:21.443Z,13.20
2018-04-24T12:57:50.094Z,13.20
2018-04-24T13:00:18.321Z,13.30
2018-04-24T13:02:46.562Z,13.70
2018-04-24T13:05:14.815Z,14.00
2018-04-24T13:07:43.821Z,13.80
2018-04-24T13:10:12.842Z,13.90
2018-04-24T13:12:41.071Z,13.90
2018-04-24T13:15:10.090Z,14.10
2018-04-24T13:17:38.327Z,14.10
2018-04-24T13:20:06.578Z,14.00
2018-04-24T13:22:34.823Z,13.80
2018-04-24T13:25:03.064Z,13.80
2018-04-24T13:27:32.080Z,13.80
2018-04-24T13:30:00.315Z,13.80
2018-04-24T13:32:28.570Z,13.60
2018-04-24T13:34:56.809Z,13.50
2018-04-24T13:37:25.052Z,13.40
2018-04-24T13:39:54.058Z,13.30
2018-04-24T13:42:22.342Z,13.20
2018-04-24T13:44:50.580Z,13.30
2018-04-24T13:47:18.833Z,13.30
2018-04-24T13:49:47.058Z,13.40
2018-04-24T13:52:15.311Z,13.40
2018-04-24T13:54:44.314Z,13.50
2018-04-24T13:57:13.328Z,13.60
2018-04-24T13:59:41.568Z,13.50
2018-04-24T14:02:10.575Z,13.50
2018-04-24T14:04:38.813Z,13.40
2018-04-24T14:07:07.063Z,13.40
2018-04-24T14:09:35.307Z,13.40
2018-04-24T14:12:03.554Z,13.40
2018-04-24T14:14:32.948Z,13.40
2018-04-24T14:17:01.167Z,13.40
2018-04-24T14:19:29.406Z,13.40
2018-04-24T14:21:58.422Z,13.50
2018-04-24T14:24:26.662Z,13.50
2018-04-24T14:26:54.902Z,13.50
2018-04-24T14:29:23.134Z,13.40
2018-04-24T14:31:51.436Z,13.40
2018-04-24T14:34:19.680Z,13.40
2018-04-24T14:36:48.695Z,13.40
2018-04-24T14:39:16.932Z,13.40
2018-04-24T14:41:45.942Z,13.40
2018-04-24T14:44:14.190Z,13.40
2018-04-24T14:46:42.436Z,13.50
2018-04-24T14:49:10.667Z,13.40
2018-04-24T14:51:38.999Z,13.40
2018-04-24T14:54:07.931Z,13.30
2018-04-24T14:56:36.187Z,13.30
2018-04-24T14:59:05.200Z,13.20
2018-04-24T15:01:33.426Z,13.10
2018-04-24T15:04:01.679Z,13.10
2018-04-24T15:06:29.910Z,13.10
2018-04-24T15:08:58.161Z,13.20
2018-04-24T15:11:26.392Z,13.20
2018-04-24T15:13:54.646Z,13.20
2018-04-24T15:16:22.888Z,13.40
2018-04-24T15:18:51.911Z,13.60
2018-04-24T15:21:20.142Z,13.60
2018-04-24T15:23:48.394Z,13.70
2018-04-24T15:26:16.632Z,13.60
2018-04-24T15:28:44.879Z,13.70
2018-04-24T15:31:13.940Z,13.70
2018-04-24T15:33:42.894Z,13.70
2018-04-24T15:36:11.131Z,13.60
2018-04-24T15:38:40.154Z,13.60
2018-04-24T15:41:08.402Z,13.50
2018-04-24T15:43:37.412Z,13.60
2018-04-24T15:46:05.648Z,13.70
2018-04-24T15:48:33.899Z,13.70
2018-04-24T15:51:02.131Z,13.90
2018-04-24T15:53:30.388Z,13.90
2018-04-24T15:55:59.386Z,13.90
2018-04-24T15:58:28.403Z,13.90
2018-04-24T16:00:56.667Z,13.90
2018-04-24T16:03:24.919Z,14.00
2018-04-24T16:05:53.918Z,14.10
2018-04-24T16:08:22.942Z,14.20
2018-04-24T16:10:51.249Z,14.20
2018-04-24T16:13:19.466Z,14.40
2018-04-24T16:15:53.881Z,14.40
2018-04-24T16:18:22.483Z,14.40
2018-04-24T16:20:50.715Z,14.30
2018-04-24T16:23:19.035Z,14.20
2018-04-24T16:25:51.679Z,14.00
2018-04-24T16:28:19.975Z,14.00
2018-04-24T16:30:48.392Z,13.90
2018-04-24T16:33:17.043Z,13.90
2018-04-24T16:35:45.741Z,13.80
2018-04-24T16:38:14.112Z,13.70
2018-04-24T16:40:42.547Z,13.70
2018-04-24T16:43:11.142Z,13.70
2018-04-24T16:45:40.163Z,13.80
2018-04-24T16:48:09.501Z,13.80
2018-04-24T16:50:37.751Z,13.80
2018-04-24T16:53:06.173Z,13.80
2018-04-24T16:55:35.679Z,13.70
2018-04-24T16:58:04.078Z,13.70
2018-04-24T17:00:33.171Z,13.70
2018-04-24T17:03:01.323Z,13.70
2018-04-24T17:05:30.345Z,13.70
2018-04-24T17:07:58.684Z,13.70
2018-04-24T17:10:26.939Z,13.70
2018-04-24T17:12:55.185Z,13.60
2018-04-24T17:15:23.437Z,13.60
2018-04-24T17:17:51.672Z,13.60
2018-04-24T17:20:19.918Z,13.60
2018-04-24T17:22:48.168Z,13.50
2018-04-24T17:25:16.416Z,13.50
2018-04-24T17:27:45.415Z,13.50
2018-04-24T17:30:13.658Z,13.50
2018-04-24T17:32:41.902Z,13.40
2018-04-24T17:35:10.154Z,13.50
2018-04-24T17:37:38.398Z,13.40
2018-04-24T17:40:07.501Z,13.30
2018-04-24T17:42:36.548Z,13.30
2018-04-24T17:45:04.758Z,13.30
2018-04-24T17:47:33.771Z,13.30
2018-04-24T17:50:02.433Z,13.30
2018-04-24T17:52:31.345Z,13.30
2018-04-24T17:54:59.576Z,13.30
2018-04-24T17:57:27.829Z,13.30
2018-04-24T17:59:56.069Z,13.20
2018-04-24T18:02:24.319Z,13.20
2018-04-24T18:04:53.330Z,13.20
2018-04-24T18:07:21.890Z,13.20
2018-04-24T18:09:50.896Z,13.10
2018-04-24T18:12:19.914Z,13.10
2018-04-24T18:14:48.152Z,13.10
2018-04-24T18:17:17.167Z,13.10
2018-04-24T18:19:45.419Z,13.10
2018-04-24T18:22:14.427Z,13.10
2018-04-24T18:24:42.668Z,13.10
2018-04-24T18:27:10.923Z,13.10
2018-04-24T18:29:39.197Z,13.00
2018-04-24T18:32:07.422Z,13.00
2018-04-24T18:34:35.707Z,13.00
2018-04-24T18:37:03.906Z,13.00
2018-04-24T18:39:32.174Z,13.00
2018-04-24T18:42:00.449Z,13.00
2018-04-24T18:44:28.694Z,13.00
2018-04-24T18:46:56.933Z,12.90
2018-04-24T18:49:25.176Z,13.00
2018-04-24T18:51:53.406Z,12.90
2018-04-24T18:54:21.657Z,12.90
2018-04-24T18:56:49.894Z,13.00
2018-04-24T18:59:18.160Z,13.00
2018-04-24T19:01:46.390Z,12.90
2018-04-24T19:04:15.402Z,13.00
2018-04-24T19:06:43.640Z,12.90
2018-04-24T19:09:11.892Z,12.90
2018-04-24T19:11:40.334Z,12.90
2018-04-24T19:14:15.046Z,12.80
2018-04-24T19:16:43.515Z,12.80
2018-04-24T19:19:18.641Z,12.80
2018-04-24T19:21:47.783Z,12.80
2018-04-24T19:24:22.251Z,12.80
2018-04-24T19:26:50.456Z,12.70
2018-04-24T19:29:19.215Z,12.70
2018-04-24T19:31:53.839Z,12.60
2018-04-24T19:34:22.080Z,12.70
2018-04-24T19:36:51.159Z,12.60
2018-04-24T19:39:26.374Z,12.60
2018-04-24T19:41:55.169Z,12.60
2018-04-24T19:44:24.704Z,12.50
2018-04-24T19:46:53.320Z,12.50
2018-04-24T19:49:27.755Z,12.50
2018-04-24T19:51:56.171Z,12.50
2018-04-24T19:54:24.417Z,12.40
2018-04-24T19:56:52.857Z,12.40
2018-04-24T19:59:21.504Z,12.30
2018-04-24T20:01:49.778Z,12.40
2018-04-24T20:04:18.064Z,12.40
2018-04-24T20:06:46.442Z,12.50
2018-04-24T20:09:15.155Z,12.40
2018-04-24T20:11:43.474Z,12.50
2018-04-24T20:14:11.753Z,12.50
2018-04-24T20:16:40.002Z,12.40
2018-04-24T20:19:08.466Z,12.40
2018-04-24T20:21:37.487Z,12.40
2018-04-24T20:24:05.731Z,12.30
2018-04-24T20:26:34.759Z,12.40
2018-04-24T20:29:02.989Z,12.30
2018-04-24T20:31:31.251Z,12.30
2018-04-24T20:33:59.483Z,12.30
2018-04-24T20:36:27.731Z,12.20
2018-04-24T20:38:56.734Z,12.20
2018-04-24T20:41:24.991Z,12.20
2018-04-24T20:43:53.999Z,12.10
2018-04-24T20:46:22.279Z,12.10
2018-04-24T20:48:50.507Z,12.10
2018-04-24T20:51:18.757Z,12.10
2018-04-24T20:53:46.995Z,12.10
2018-04-24T20:56:15.243Z,12.00
2018-04-24T20:58:44.252Z,12.00
2018-04-24T21:01:13.275Z,12.00
2018-04-24T21:03:41.507Z,12.00
2018-04-24T21:06:10.591Z,12.00
2018-04-24T21:08:38.750Z,11.90
2018-04-24T21:11:07.007Z,11.90
2018-04-24T21:13:35.239Z,11.90
2018-04-24T21:16:03.512Z,11.80
2018-04-24T21:18:31.760Z,11.80
2018-04-24T21:20:59.992Z,11.80
2018-04-24T21:23:28.239Z,11.80
2018-04-24T21:25:56.483Z,11.70
2018-04-24T21:28:25.491Z,11.80
2018-04-24T21:30:54.490Z,11.80
2018-04-24T21:33:22.743Z,11.70
2018-04-24T21:35:51.748Z,11.70
2018-04-24T21:38:20.766Z,11.60
2018-04-24T21:40:48.998Z,11.60
2018-04-24T21:43:18.017Z,11.40
2018-04-24T21:45:46.679Z,11.40
2018-04-24T21:48:15.696Z,11.40
2018-04-24T21:50:43.920Z,11.40
2018-04-24T21:53:12.167Z,11.40
2018-04-24T21:55:40.411Z,11.40
2018-04-24T21:58:08.662Z,11.40
2018-04-24T22:00:37.658Z,11.30
2018-04-24T22:03:06.671Z,11.30
2018-04-24T22:05:34.909Z,11.30
2018-04-24T22:08:03.151Z,11.20
2018-04-24T22:10:31.387Z,11.30
2018-04-24T22:12:59.635Z,11.20
2018-04-24T22:15:28.220Z,11.20
2018-04-24T22:17:56.442Z,11.20
2018-04-24T22:20:24.676Z,11.20
2018-04-24T22:22:53.687Z,11.30
2018-04-24T22:25:21.928Z,11.30
2018-04-24T22:27:50.177Z,11.40
2018-04-24T22:30:19.180Z,11.30
2018-04-24T22:32:47.429Z,11.30
2018-04-24T22:35:15.671Z,11.30
2018-04-24T22:37:44.691Z,11.30
2018-04-24T22:40:12.927Z,11.30
2018-04-24T22:42:41.943Z,11.30
2018-04-24T22:45:10.183Z,11.20
2018-04-24T22:47:39.203Z,11.30
2018-04-24T22:50:07.439Z,11.30
2018-04-24T22:52:35.687Z,11.30
2018-04-24T22:55:04.296Z,11.30
2018-04-24T22:57:33.287Z,11.30
2018-04-24T23:00:01.527Z,11.30
2018-04-24T23:02:29.774Z,11.30
2018-04-24T23:04:58.019Z,11.40
2018-04-24T23:07:27.039Z,11.40
2018-04-24T23:09:54.799Z,11.40
2018-04-24T23:12:34.893Z,11.40
2018-04-24T23:15:21.164Z,11.50
2018-04-24T23:18:07.367Z,11.60
2018-04-24T23:20:41.127Z,11.60
2018-04-24T23:23:09.132Z,11.70
2018-04-24T23:25:37.367Z,11.70
2018-04-24T23:28:06.382Z,11.80
2018-04-24T23:30:34.626Z,11.80
2018-04-24T23:33:03.627Z,12.00
2018-04-24T23:35:32.658Z,12.00
2018-04-24T23:38:00.898Z,12.00
2018-04-24T23:40:29.906Z,12.10
2018-04-24T23:42:58.147Z,12.10
2018-04-24T23:45:27.165Z,12.20
2018-04-24T23:47:55.401Z,12.20
2018-04-24T23:50:23.672Z,12.30
2018-04-24T23:52:51.878Z,12.30
2018-04-24T23:55:20.127Z,12.30
2018-04-24T23:57:48.364Z,12.40
